sensor_id;sensor_type;location;lat;lon;timestamp;pressure;altitude;pressure_sealevel;temperature;humidity
11085;BME280;5596;46.826;8.650;2022-12-18T00:01:01;97094.50;;;-1.94;100.00
11085;BME280;5596;46.826;8.650;2022-12-18T00:03:32;97103.84;;;-1.90;100.00
11085;BME280;5596;46.826;8.650;2022-12-18T00:05:59;97110.13;;;-1.91;100.00
11085;BME280;5596;46.826;8.650;2022-12-18T00:08:27;97115.81;;;-1.96;100.00
11085;BME280;5596;46.826;8.650;2022-12-18T00:10:54;97118.59;;;-1.97;100.00
11085;BME280;5596;46.826;8.650;2022-12-18T00:13:22;97126.00;;;-1.91;100.00
11085;BME280;5596;46.826;8.650;2022-12-18T00:15:53;97113.44;;;-1.99;100.00
11085;BME280;5596;46.826;8.650;2022-12-18T00:18:20;97111.19;;;-2.03;100.00
11085;BME280;5596;46.826;8.650;2022-12-18T00:20:47;97127.78;;;-2.01;100.00
11085;BME280;5596;46.826;8.650;2022-12-18T00:23:14;97129.19;;;-1.97;100.00
11085;BME280;5596;46.826;8.650;2022-12-18T00:25:41;97125.84;;;-1.99;100.00
11085;BME280;5596;46.826;8.650;2022-12-18T00:28:08;97124.16;;;-2.00;100.00
11085;BME280;5596;46.826;8.650;2022-12-18T00:30:35;97122.47;;;-2.01;100.00
11085;BME280;5596;46.826;8.650;2022-12-18T00:33:04;97132.09;;;-2.00;100.00
11085;BME280;5596;46.826;8.650;2022-12-18T00:35:31;97142.44;;;-1.97;100.00
11085;BME280;5596;46.826;8.650;2022-12-18T00:37:58;97141.72;;;-1.99;100.00
11085;BME280;5596;46.826;8.650;2022-12-18T00:40:25;97143.53;;;-2.00;100.00
11085;BME280;5596;46.826;8.650;2022-12-18T00:42:53;97146.72;;;-2.06;100.00
11085;BME280;5596;46.826;8.650;2022-12-18T00:45:22;97168.19;;;-1.99;100.00
11085;BME280;5596;46.826;8.650;2022-12-18T00:47:49;97169.84;;;-1.98;100.00
11085;BME280;5596;46.826;8.650;2022-12-18T00:50:18;97169.88;;;-2.19;100.00
11085;BME280;5596;46.826;8.650;2022-12-18T00:52:46;97181.13;;;-2.26;100.00
11085;BME280;5596;46.826;8.650;2022-12-18T00:55:14;97175.13;;;-2.29;100.00
11085;BME280;5596;46.826;8.650;2022-12-18T00:57:41;97181.44;;;-2.20;100.00
11085;BME280;5596;46.826;8.650;2022-12-18T01:00:12;97187.44;;;-2.18;100.00
11085;BME280;5596;46.826;8.650;2022-12-18T01:02:41;97187.97;;;-2.24;100.00
11085;BME280;5596;46.826;8.650;2022-12-18T01:05:10;97188.22;;;-2.27;100.00
11085;BME280;5596;46.826;8.650;2022-12-18T01:07:38;97183.66;;;-2.46;100.00
11085;BME280;5596;46.826;8.650;2022-12-18T01:10:06;97180.81;;;-2.54;100.00
11085;BME280;5596;46.826;8.650;2022-12-18T01:12:35;97177.28;;;-2.64;100.00
11085;BME280;5596;46.826;8.650;2022-12-18T01:15:03;97179.72;;;-2.72;100.00
11085;BME280;5596;46.826;8.650;2022-12-18T01:17:30;97193.66;;;-2.70;100.00
11085;BME280;5596;46.826;8.650;2022-12-18T01:20:00;97171.84;;;-2.83;100.00
11085;BME280;5596;46.826;8.650;2022-12-18T01:22:27;97181.66;;;-2.74;100.00
11085;BME280;5596;46.826;8.650;2022-12-18T01:24:55;97178.91;;;-2.73;100.00
11085;BME280;5596;46.826;8.650;2022-12-18T01:27:22;97166.66;;;-2.74;100.00
11085;BME280;5596;46.826;8.650;2022-12-18T01:29:51;97180.69;;;-2.73;100.00
11085;BME280;5596;46.826;8.650;2022-12-18T01:32:18;97173.13;;;-2.78;100.00
11085;BME280;5596;46.826;8.650;2022-12-18T01:34:46;97184.22;;;-2.63;100.00
11085;BME280;5596;46.826;8.650;2022-12-18T01:37:13;97160.50;;;-2.74;100.00
11085;BME280;5596;46.826;8.650;2022-12-18T01:39:40;97176.94;;;-2.71;100.00
11085;BME280;5596;46.826;8.650;2022-12-18T01:42:13;97162.44;;;-2.76;100.00
11085;BME280;5596;46.826;8.650;2022-12-18T01:44:57;97157.47;;;-2.70;100.00
11085;BME280;5596;46.826;8.650;2022-12-18T01:47:27;97154.38;;;-2.75;100.00
11085;BME280;5596;46.826;8.650;2022-12-18T01:49:57;97156.06;;;-2.74;100.00
11085;BME280;5596;46.826;8.650;2022-12-18T01:52:26;97171.78;;;-2.72;100.00
11085;BME280;5596;46.826;8.650;2022-12-18T01:54:56;97154.13;;;-2.72;100.00
11085;BME280;5596;46.826;8.650;2022-12-18T01:57:27;97149.22;;;-2.76;100.00
11085;BME280;5596;46.826;8.650;2022-12-18T01:59:59;97155.09;;;-2.73;100.00
11085;BME280;5596;46.826;8.650;2022-12-18T02:02:28;97145.03;;;-2.79;100.00
11085;BME280;5596;46.826;8.650;2022-12-18T02:04:58;97144.06;;;-2.78;100.00
11085;BME280;5596;46.826;8.650;2022-12-18T02:07:33;97155.09;;;-2.73;100.00
11085;BME280;5596;46.826;8.650;2022-12-18T02:10:09;97153.88;;;-2.69;100.00
11085;BME280;5596;46.826;8.650;2022-12-18T02:12:48;97150.13;;;-2.66;100.00
11085;BME280;5596;46.826;8.650;2022-12-18T02:15:25;97145.41;;;-2.62;100.00
11085;BME280;5596;46.826;8.650;2022-12-18T02:17:57;97147.69;;;-2.58;100.00
11085;BME280;5596;46.826;8.650;2022-12-18T02:20:32;97156.63;;;-2.49;100.00
11085;BME280;5596;46.826;8.650;2022-12-18T02:23:18;97148.13;;;-2.53;100.00
11085;BME280;5596;46.826;8.650;2022-12-18T02:26:04;97151.72;;;-2.54;100.00
11085;BME280;5596;46.826;8.650;2022-12-18T02:28:36;97160.00;;;-2.47;100.00
11085;BME280;5596;46.826;8.650;2022-12-18T02:31:10;97170.91;;;-2.41;100.00
11085;BME280;5596;46.826;8.650;2022-12-18T02:33:40;97163.66;;;-2.39;100.00
11085;BME280;5596;46.826;8.650;2022-12-18T02:36:10;97151.78;;;-2.44;100.00
11085;BME280;5596;46.826;8.650;2022-12-18T02:38:42;97169.88;;;-2.49;100.00
11085;BME280;5596;46.826;8.650;2022-12-18T02:41:15;97178.75;;;-2.50;100.00
11085;BME280;5596;46.826;8.650;2022-12-18T02:43:47;97181.84;;;-2.45;100.00
11085;BME280;5596;46.826;8.650;2022-12-18T02:46:27;97173.84;;;-2.55;100.00
11085;BME280;5596;46.826;8.650;2022-12-18T02:49:12;97186.25;;;-2.55;100.00
11085;BME280;5596;46.826;8.650;2022-12-18T02:51:50;97172.25;;;-2.67;100.00
11085;BME280;5596;46.826;8.650;2022-12-18T02:54:27;97194.31;;;-2.57;100.00
11085;BME280;5596;46.826;8.650;2022-12-18T02:57:03;97196.13;;;-2.57;100.00
11085;BME280;5596;46.826;8.650;2022-12-18T02:59:40;97193.00;;;-2.62;100.00
11085;BME280;5596;46.826;8.650;2022-12-18T03:02:19;97201.53;;;-2.59;100.00
11085;BME280;5596;46.826;8.650;2022-12-18T03:04:55;97202.28;;;-2.68;100.00
11085;BME280;5596;46.826;8.650;2022-12-18T03:07:30;97215.00;;;-2.62;100.00
11085;BME280;5596;46.826;8.650;2022-12-18T03:10:00;97195.91;;;-2.65;100.00
11085;BME280;5596;46.826;8.650;2022-12-18T03:12:32;97211.56;;;-2.53;100.00
11085;BME280;5596;46.826;8.650;2022-12-18T03:15:06;97211.84;;;-2.56;100.00
11085;BME280;5596;46.826;8.650;2022-12-18T03:17:37;97227.72;;;-2.56;100.00
11085;BME280;5596;46.826;8.650;2022-12-18T03:20:10;97227.56;;;-2.54;100.00
11085;BME280;5596;46.826;8.650;2022-12-18T03:22:40;97214.44;;;-2.65;100.00
11085;BME280;5596;46.826;8.650;2022-12-18T03:25:12;97197.25;;;-2.71;100.00
11085;BME280;5596;46.826;8.650;2022-12-18T03:27:45;97208.66;;;-2.71;100.00
11085;BME280;5596;46.826;8.650;2022-12-18T03:30:16;97211.69;;;-2.75;100.00
11085;BME280;5596;46.826;8.650;2022-12-18T03:32:47;97209.69;;;-2.83;100.00
11085;BME280;5596;46.826;8.650;2022-12-18T03:35:21;97208.25;;;-2.87;100.00
11085;BME280;5596;46.826;8.650;2022-12-18T03:37:50;97224.59;;;-2.82;100.00
11085;BME280;5596;46.826;8.650;2022-12-18T03:40:18;97217.53;;;-2.92;100.00
11085;BME280;5596;46.826;8.650;2022-12-18T03:42:49;97224.75;;;-2.94;100.00
11085;BME280;5596;46.826;8.650;2022-12-18T03:45:22;97218.06;;;-2.98;100.00
11085;BME280;5596;46.826;8.650;2022-12-18T03:47:59;97224.03;;;-2.96;100.00
11085;BME280;5596;46.826;8.650;2022-12-18T03:50:38;97228.13;;;-3.03;100.00
11085;BME280;5596;46.826;8.650;2022-12-18T03:53:18;97208.25;;;-3.19;100.00
11085;BME280;5596;46.826;8.650;2022-12-18T03:55:50;97222.53;;;-3.21;100.00
11085;BME280;5596;46.826;8.650;2022-12-18T03:58:23;97219.44;;;-3.26;100.00
11085;BME280;5596;46.826;8.650;2022-12-18T04:01:01;97221.69;;;-3.22;100.00
11085;BME280;5596;46.826;8.650;2022-12-18T04:03:32;97224.34;;;-3.22;100.00
11085;BME280;5596;46.826;8.650;2022-12-18T04:06:02;97228.31;;;-3.16;100.00
11085;BME280;5596;46.826;8.650;2022-12-18T04:08:32;97216.19;;;-3.19;100.00
11085;BME280;5596;46.826;8.650;2022-12-18T04:11:06;97222.19;;;-3.17;100.00
11085;BME280;5596;46.826;8.650;2022-12-18T04:13:37;97216.91;;;-3.17;100.00
11085;BME280;5596;46.826;8.650;2022-12-18T04:16:13;97227.56;;;-3.07;100.00
11085;BME280;5596;46.826;8.650;2022-12-18T04:18:42;97237.75;;;-3.02;100.00
11085;BME280;5596;46.826;8.650;2022-12-18T04:21:10;97249.75;;;-2.98;100.00
11085;BME280;5596;46.826;8.650;2022-12-18T04:23:37;97247.84;;;-3.08;100.00
11085;BME280;5596;46.826;8.650;2022-12-18T04:26:07;97267.03;;;-3.06;100.00
11085;BME280;5596;46.826;8.650;2022-12-18T04:28:56;97266.19;;;-3.06;100.00
11085;BME280;5596;46.826;8.650;2022-12-18T04:31:23;97263.34;;;-3.14;100.00
11085;BME280;5596;46.826;8.650;2022-12-18T04:33:51;97280.41;;;-3.07;100.00
11085;BME280;5596;46.826;8.650;2022-12-18T04:36:19;97280.25;;;-3.06;100.00
11085;BME280;5596;46.826;8.650;2022-12-18T04:38:46;97270.91;;;-3.10;100.00
11085;BME280;5596;46.826;8.650;2022-12-18T04:41:15;97276.66;;;-3.05;100.00
11085;BME280;5596;46.826;8.650;2022-12-18T04:43:45;97285.69;;;-3.07;100.00
11085;BME280;5596;46.826;8.650;2022-12-18T04:46:14;97293.13;;;-3.01;100.00
11085;BME280;5596;46.826;8.650;2022-12-18T04:48:41;97289.16;;;-3.07;100.00
11085;BME280;5596;46.826;8.650;2022-12-18T04:51:08;97296.25;;;-3.07;100.00
11085;BME280;5596;46.826;8.650;2022-12-18T04:53:35;97299.00;;;-3.09;100.00
11085;BME280;5596;46.826;8.650;2022-12-18T04:56:04;97289.41;;;-3.21;100.00
11085;BME280;5596;46.826;8.650;2022-12-18T04:58:31;97316.06;;;-3.13;100.00
11085;BME280;5596;46.826;8.650;2022-12-18T05:00:58;97300.72;;;-3.19;100.00
11085;BME280;5596;46.826;8.650;2022-12-18T05:03:27;97321.56;;;-3.05;100.00
11085;BME280;5596;46.826;8.650;2022-12-18T05:05:54;97316.28;;;-3.05;100.00
11085;BME280;5596;46.826;8.650;2022-12-18T05:08:21;97312.81;;;-3.05;100.00
11085;BME280;5596;46.826;8.650;2022-12-18T05:10:48;97305.25;;;-2.98;100.00
11085;BME280;5596;46.826;8.650;2022-12-18T05:13:15;97316.38;;;-2.95;100.00
11085;BME280;5596;46.826;8.650;2022-12-18T05:15:42;97303.06;;;-3.05;100.00
11085;BME280;5596;46.826;8.650;2022-12-18T05:18:09;97313.41;;;-3.13;100.00
11085;BME280;5596;46.826;8.650;2022-12-18T05:20:38;97319.78;;;-3.04;100.00
11085;BME280;5596;46.826;8.650;2022-12-18T05:23:05;97302.13;;;-3.03;100.00
11085;BME280;5596;46.826;8.650;2022-12-18T05:25:32;97320.94;;;-2.97;100.00
11085;BME280;5596;46.826;8.650;2022-12-18T05:27:59;97306.44;;;-3.02;100.00
11085;BME280;5596;46.826;8.650;2022-12-18T05:30:26;97309.94;;;-3.02;100.00
11085;BME280;5596;46.826;8.650;2022-12-18T05:32:54;97300.53;;;-2.95;100.00
11085;BME280;5596;46.826;8.650;2022-12-18T05:35:21;97307.84;;;-2.87;100.00
11085;BME280;5596;46.826;8.650;2022-12-18T05:37:49;97306.16;;;-2.88;100.00
11085;BME280;5596;46.826;8.650;2022-12-18T05:40:16;97303.06;;;-2.93;100.00
11085;BME280;5596;46.826;8.650;2022-12-18T05:42:43;97293.13;;;-3.01;100.00
11085;BME280;5596;46.826;8.650;2022-12-18T05:45:10;97296.84;;;-3.03;100.00
11085;BME280;5596;46.826;8.650;2022-12-18T05:47:37;97306.69;;;-3.06;100.00
11085;BME280;5596;46.826;8.650;2022-12-18T05:50:06;97287.25;;;-3.16;100.00
11085;BME280;5596;46.826;8.650;2022-12-18T05:52:33;97295.31;;;-3.17;100.00
11085;BME280;5596;46.826;8.650;2022-12-18T05:55:02;97293.13;;;-3.12;100.00
11085;BME280;5596;46.826;8.650;2022-12-18T05:57:29;97289.63;;;-3.13;100.00
11085;BME280;5596;46.826;8.650;2022-12-18T05:59:56;97292.50;;;-3.05;100.00
11085;BME280;5596;46.826;8.650;2022-12-18T06:02:23;97282.31;;;-3.09;100.00
11085;BME280;5596;46.826;8.650;2022-12-18T06:04:50;97276.44;;;-3.13;100.00
11085;BME280;5596;46.826;8.650;2022-12-18T06:07:17;97273.44;;;-3.19;100.00
11085;BME280;5596;46.826;8.650;2022-12-18T06:09:44;61776.25;;;-141.59;100.00
11085;BME280;5596;46.826;8.650;2022-12-18T06:12:12;61776.25;;;-141.59;100.00
11085;BME280;5596;46.826;8.650;2022-12-18T06:14:39;61776.25;;;-141.59;100.00
11085;BME280;5596;46.826;8.650;2022-12-18T06:17:06;61776.25;;;-141.59;100.00
11085;BME280;5596;46.826;8.650;2022-12-18T06:19:33;61776.25;;;-141.59;100.00
11085;BME280;5596;46.826;8.650;2022-12-18T06:22:00;61776.25;;;-141.59;100.00
11085;BME280;5596;46.826;8.650;2022-12-18T06:24:27;61776.25;;;-141.59;100.00
11085;BME280;5596;46.826;8.650;2022-12-18T06:26:54;61776.25;;;-141.59;100.00
11085;BME280;5596;46.826;8.650;2022-12-18T06:29:23;61776.25;;;-141.59;100.00
11085;BME280;5596;46.826;8.650;2022-12-18T06:31:50;61776.25;;;-141.59;100.00
11085;BME280;5596;46.826;8.650;2022-12-18T06:34:17;61776.25;;;-141.59;100.00
11085;BME280;5596;46.826;8.650;2022-12-18T06:36:44;61776.25;;;-141.59;100.00
11085;BME280;5596;46.826;8.650;2022-12-18T06:39:11;61776.25;;;-141.59;100.00
11085;BME280;5596;46.826;8.650;2022-12-18T06:41:38;61776.25;;;-141.59;100.00
11085;BME280;5596;46.826;8.650;2022-12-18T06:44:05;61776.25;;;-141.59;100.00
11085;BME280;5596;46.826;8.650;2022-12-18T06:46:33;61776.25;;;-141.59;100.00
11085;BME280;5596;46.826;8.650;2022-12-18T06:49:00;61776.25;;;-141.59;100.00
11085;BME280;5596;46.826;8.650;2022-12-18T06:51:28;61776.25;;;-141.59;100.00
11085;BME280;5596;46.826;8.650;2022-12-18T06:53:55;61776.25;;;-141.59;100.00
11085;BME280;5596;46.826;8.650;2022-12-18T06:56:22;61776.25;;;-141.59;100.00
11085;BME280;5596;46.826;8.650;2022-12-18T06:58:50;61776.25;;;-141.59;100.00
11085;BME280;5596;46.826;8.650;2022-12-18T07:01:17;61776.25;;;-141.59;100.00
11085;BME280;5596;46.826;8.650;2022-12-18T07:03:45;61776.25;;;-141.59;100.00
11085;BME280;5596;46.826;8.650;2022-12-18T07:06:16;61776.25;;;-141.59;100.00
11085;BME280;5596;46.826;8.650;2022-12-18T07:08:44;61776.25;;;-141.59;100.00
11085;BME280;5596;46.826;8.650;2022-12-18T07:11:11;61776.25;;;-141.59;100.00
11085;BME280;5596;46.826;8.650;2022-12-18T07:13:38;61776.25;;;-141.59;100.00
11085;BME280;5596;46.826;8.650;2022-12-18T07:16:07;61776.25;;;-141.59;100.00
11085;BME280;5596;46.826;8.650;2022-12-18T07:18:35;61776.25;;;-141.59;100.00
11085;BME280;5596;46.826;8.650;2022-12-18T07:21:08;61776.25;;;-141.59;100.00
11085;BME280;5596;46.826;8.650;2022-12-18T07:23:35;61776.25;;;-141.59;100.00
11085;BME280;5596;46.826;8.650;2022-12-18T07:26:03;61776.25;;;-141.59;100.00
11085;BME280;5596;46.826;8.650;2022-12-18T07:28:31;61776.25;;;-141.59;100.00
11085;BME280;5596;46.826;8.650;2022-12-18T07:30:58;61776.25;;;-141.59;100.00
11085;BME280;5596;46.826;8.650;2022-12-18T07:33:28;61776.25;;;-141.59;100.00
11085;BME280;5596;46.826;8.650;2022-12-18T07:35:55;61776.25;;;-141.59;100.00
11085;BME280;5596;46.826;8.650;2022-12-18T07:38:24;61776.25;;;-141.59;100.00
11085;BME280;5596;46.826;8.650;2022-12-18T07:40:51;61776.25;;;-141.59;100.00
11085;BME280;5596;46.826;8.650;2022-12-18T07:43:18;61776.25;;;-141.59;100.00
11085;BME280;5596;46.826;8.650;2022-12-18T07:45:45;61776.25;;;-141.59;100.00
11085;BME280;5596;46.826;8.650;2022-12-18T07:48:15;61776.25;;;-141.59;100.00
11085;BME280;5596;46.826;8.650;2022-12-18T07:50:42;61776.25;;;-141.59;100.00
11085;BME280;5596;46.826;8.650;2022-12-18T07:53:09;61776.25;;;-141.59;100.00
11085;BME280;5596;46.826;8.650;2022-12-18T07:55:38;61776.25;;;-141.59;100.00
11085;BME280;5596;46.826;8.650;2022-12-18T07:58:05;61776.25;;;-141.59;100.00
11085;BME280;5596;46.826;8.650;2022-12-18T08:00:33;61776.25;;;-141.59;100.00
11085;BME280;5596;46.826;8.650;2022-12-18T08:03:00;61776.25;;;-141.59;100.00
11085;BME280;5596;46.826;8.650;2022-12-18T08:05:27;61776.25;;;-141.59;100.00
11085;BME280;5596;46.826;8.650;2022-12-18T08:07:55;61776.25;;;-141.59;100.00
11085;BME280;5596;46.826;8.650;2022-12-18T08:10:22;61776.25;;;-141.59;100.00
11085;BME280;5596;46.826;8.650;2022-12-18T08:12:51;61776.25;;;-141.59;100.00
11085;BME280;5596;46.826;8.650;2022-12-18T08:15:18;61776.25;;;-141.59;100.00
11085;BME280;5596;46.826;8.650;2022-12-18T08:17:45;61776.25;;;-141.59;100.00
11085;BME280;5596;46.826;8.650;2022-12-18T08:20:12;61776.25;;;-141.59;100.00
11085;BME280;5596;46.826;8.650;2022-12-18T08:22:40;61776.25;;;-141.59;100.00
11085;BME280;5596;46.826;8.650;2022-12-18T08:25:08;61776.25;;;-141.59;100.00
11085;BME280;5596;46.826;8.650;2022-12-18T08:27:35;61776.25;;;-141.59;100.00
11085;BME280;5596;46.826;8.650;2022-12-18T08:30:07;61776.25;;;-141.59;100.00
11085;BME280;5596;46.826;8.650;2022-12-18T08:32:35;61776.25;;;-141.59;100.00
11085;BME280;5596;46.826;8.650;2022-12-18T08:35:02;61776.25;;;-141.59;100.00
11085;BME280;5596;46.826;8.650;2022-12-18T08:37:29;61776.25;;;-141.59;100.00
11085;BME280;5596;46.826;8.650;2022-12-18T08:39:56;61776.25;;;-141.59;100.00
11085;BME280;5596;46.826;8.650;2022-12-18T08:42:24;61776.25;;;-141.59;100.00
11085;BME280;5596;46.826;8.650;2022-12-18T08:45:10;61776.25;;;-141.59;100.00
11085;BME280;5596;46.826;8.650;2022-12-18T08:47:37;61776.25;;;-141.59;100.00
11085;BME280;5596;46.826;8.650;2022-12-18T08:50:09;61776.25;;;-141.59;100.00
11085;BME280;5596;46.826;8.650;2022-12-18T08:52:40;61776.25;;;-141.59;100.00
11085;BME280;5596;46.826;8.650;2022-12-18T08:55:11;61776.25;;;-141.59;100.00
11085;BME280;5596;46.826;8.650;2022-12-18T08:57:38;61776.25;;;-141.59;100.00
11085;BME280;5596;46.826;8.650;2022-12-18T09:00:10;61776.25;;;-141.59;100.00
11085;BME280;5596;46.826;8.650;2022-12-18T09:02:38;61776.25;;;-141.59;100.00
11085;BME280;5596;46.826;8.650;2022-12-18T09:05:06;61776.25;;;-141.59;100.00
11085;BME280;5596;46.826;8.650;2022-12-18T09:07:33;61776.25;;;-141.59;100.00
11085;BME280;5596;46.826;8.650;2022-12-18T09:10:00;61776.25;;;-141.59;100.00
11085;BME280;5596;46.826;8.650;2022-12-18T09:12:27;61776.25;;;-141.59;100.00
11085;BME280;5596;46.826;8.650;2022-12-18T09:14:54;61776.25;;;-141.59;100.00
11085;BME280;5596;46.826;8.650;2022-12-18T09:17:23;61776.25;;;-141.59;100.00
11085;BME280;5596;46.826;8.650;2022-12-18T09:19:51;61776.25;;;-141.59;100.00
11085;BME280;5596;46.826;8.650;2022-12-18T09:22:18;61776.25;;;-141.59;100.00
11085;BME280;5596;46.826;8.650;2022-12-18T09:24:45;61776.25;;;-141.59;100.00
11085;BME280;5596;46.826;8.650;2022-12-18T09:27:12;61776.25;;;-141.59;100.00
11085;BME280;5596;46.826;8.650;2022-12-18T09:29:39;61776.25;;;-141.59;100.00
11085;BME280;5596;46.826;8.650;2022-12-18T09:32:06;61776.25;;;-141.59;100.00
11085;BME280;5596;46.826;8.650;2022-12-18T09:34:34;61776.25;;;-141.59;100.00
11085;BME280;5596;46.826;8.650;2022-12-18T09:37:01;61776.25;;;-141.59;100.00
11085;BME280;5596;46.826;8.650;2022-12-18T09:39:28;61776.25;;;-141.59;100.00
11085;BME280;5596;46.826;8.650;2022-12-18T09:41:57;61776.25;;;-141.59;100.00
11085;BME280;5596;46.826;8.650;2022-12-18T09:44:26;61776.25;;;-141.59;100.00
11085;BME280;5596;46.826;8.650;2022-12-18T09:47:04;61776.25;;;-141.59;100.00
11085;BME280;5596;46.826;8.650;2022-12-18T09:49:35;61776.25;;;-141.59;100.00
11085;BME280;5596;46.826;8.650;2022-12-18T09:52:11;61776.25;;;-141.59;100.00
11085;BME280;5596;46.826;8.650;2022-12-18T09:54:51;61776.25;;;-141.59;100.00
11085;BME280;5596;46.826;8.650;2022-12-18T09:57:21;61776.25;;;-141.59;100.00
11085;BME280;5596;46.826;8.650;2022-12-18T09:59:53;61776.25;;;-141.59;100.00
11085;BME280;5596;46.826;8.650;2022-12-18T10:02:24;61776.25;;;-141.59;100.00
11085;BME280;5596;46.826;8.650;2022-12-18T10:05:04;61776.25;;;-141.59;100.00
11085;BME280;5596;46.826;8.650;2022-12-18T10:07:41;61776.25;;;-141.59;100.00
11085;BME280;5596;46.826;8.650;2022-12-18T10:10:19;61776.25;;;-141.59;100.00
11085;BME280;5596;46.826;8.650;2022-12-18T10:12:56;61776.25;;;-141.59;100.00
11085;BME280;5596;46.826;8.650;2022-12-18T10:15:32;61776.25;;;-141.59;100.00
11085;BME280;5596;46.826;8.650;2022-12-18T10:18:12;61776.25;;;-141.59;100.00
11085;BME280;5596;46.826;8.650;2022-12-18T10:20:46;61776.25;;;-141.59;100.00
11085;BME280;5596;46.826;8.650;2022-12-18T10:23:18;61776.25;;;-141.59;100.00
11085;BME280;5596;46.826;8.650;2022-12-18T10:25:53;61776.25;;;-141.59;100.00
11085;BME280;5596;46.826;8.650;2022-12-18T10:28:23;61776.25;;;-141.59;100.00
11085;BME280;5596;46.826;8.650;2022-12-18T10:30:50;61776.25;;;-141.59;100.00
11085;BME280;5596;46.826;8.650;2022-12-18T10:33:20;61776.25;;;-141.59;100.00
11085;BME280;5596;46.826;8.650;2022-12-18T10:35:50;61776.25;;;-141.59;100.00
11085;BME280;5596;46.826;8.650;2022-12-18T10:38:24;61776.25;;;-141.59;100.00
11085;BME280;5596;46.826;8.650;2022-12-18T10:40:54;61776.25;;;-141.59;100.00
11085;BME280;5596;46.826;8.650;2022-12-18T10:43:24;61776.25;;;-141.59;100.00
11085;BME280;5596;46.826;8.650;2022-12-18T10:46:04;61776.25;;;-141.59;100.00
11085;BME280;5596;46.826;8.650;2022-12-18T10:48:46;61776.25;;;-141.59;100.00
11085;BME280;5596;46.826;8.650;2022-12-18T10:51:22;61776.25;;;-141.59;100.00
11085;BME280;5596;46.826;8.650;2022-12-18T10:53:55;61776.25;;;-141.59;100.00
11085;BME280;5596;46.826;8.650;2022-12-18T10:56:25;61776.25;;;-141.59;100.00
11085;BME280;5596;46.826;8.650;2022-12-18T10:58:58;61776.25;;;-141.59;100.00
11085;BME280;5596;46.826;8.650;2022-12-18T11:01:26;61776.25;;;-141.59;100.00
11085;BME280;5596;46.826;8.650;2022-12-18T11:04:02;61776.25;;;-141.59;100.00
11085;BME280;5596;46.826;8.650;2022-12-18T11:06:52;61776.25;;;-141.59;100.00
11085;BME280;5596;46.826;8.650;2022-12-18T11:09:22;61776.25;;;-141.59;100.00
11085;BME280;5596;46.826;8.650;2022-12-18T11:11:54;61776.25;;;-141.59;100.00
11085;BME280;5596;46.826;8.650;2022-12-18T11:14:23;61776.25;;;-141.59;100.00
11085;BME280;5596;46.826;8.650;2022-12-18T11:16:52;61776.25;;;-141.59;100.00
11085;BME280;5596;46.826;8.650;2022-12-18T11:19:26;61776.25;;;-141.59;100.00
11085;BME280;5596;46.826;8.650;2022-12-18T11:21:57;61776.25;;;-141.59;100.00
11085;BME280;5596;46.826;8.650;2022-12-18T11:24:28;61776.25;;;-141.59;100.00
11085;BME280;5596;46.826;8.650;2022-12-18T11:26:59;61776.25;;;-141.59;100.00
11085;BME280;5596;46.826;8.650;2022-12-18T11:29:32;61776.25;;;-141.59;100.00
11085;BME280;5596;46.826;8.650;2022-12-18T11:32:27;61776.25;;;-141.59;100.00
11085;BME280;5596;46.826;8.650;2022-12-18T11:35:01;61776.25;;;-141.59;100.00
11085;BME280;5596;46.826;8.650;2022-12-18T11:37:32;61776.25;;;-141.59;100.00
11085;BME280;5596;46.826;8.650;2022-12-18T11:40:06;61776.25;;;-141.59;100.00
11085;BME280;5596;46.826;8.650;2022-12-18T11:42:43;61776.25;;;-141.59;100.00
11085;BME280;5596;46.826;8.650;2022-12-18T11:45:34;61776.25;;;-141.59;100.00
11085;BME280;5596;46.826;8.650;2022-12-18T11:48:05;61776.25;;;-141.59;100.00
11085;BME280;5596;46.826;8.650;2022-12-18T11:50:43;61776.25;;;-141.59;100.00
11085;BME280;5596;46.826;8.650;2022-12-18T11:53:14;61776.25;;;-141.59;100.00
11085;BME280;5596;46.826;8.650;2022-12-18T11:55:47;61776.25;;;-141.59;100.00
11085;BME280;5596;46.826;8.650;2022-12-18T11:58:25;61776.25;;;-141.59;100.00
11085;BME280;5596;46.826;8.650;2022-12-18T12:01:00;61776.25;;;-141.59;100.00
11085;BME280;5596;46.826;8.650;2022-12-18T12:06:41;61776.25;;;-141.59;100.00
11085;BME280;5596;46.826;8.650;2022-12-18T12:09:20;61776.25;;;-141.59;100.00
11085;BME280;5596;46.826;8.650;2022-12-18T12:11:59;61776.25;;;-141.59;100.00
11085;BME280;5596;46.826;8.650;2022-12-18T12:14:40;61776.25;;;-141.59;100.00
11085;BME280;5596;46.826;8.650;2022-12-18T12:17:15;61776.25;;;-141.59;100.00
11085;BME280;5596;46.826;8.650;2022-12-18T12:19:50;61776.25;;;-141.59;100.00
11085;BME280;5596;46.826;8.650;2022-12-18T12:22:27;61776.25;;;-141.59;100.00
11085;BME280;5596;46.826;8.650;2022-12-18T12:25:18;61776.25;;;-141.59;100.00
11085;BME280;5596;46.826;8.650;2022-12-18T12:27:54;61776.25;;;-141.59;100.00
11085;BME280;5596;46.826;8.650;2022-12-18T12:30:30;61776.25;;;-141.59;100.00
11085;BME280;5596;46.826;8.650;2022-12-18T12:33:12;61776.25;;;-141.59;100.00
11085;BME280;5596;46.826;8.650;2022-12-18T12:35:47;61776.25;;;-141.59;100.00
11085;BME280;5596;46.826;8.650;2022-12-18T12:38:21;61776.25;;;-141.59;100.00
11085;BME280;5596;46.826;8.650;2022-12-18T12:40:53;61776.25;;;-141.59;100.00
11085;BME280;5596;46.826;8.650;2022-12-18T12:43:33;61776.25;;;-141.59;100.00
11085;BME280;5596;46.826;8.650;2022-12-18T12:46:04;61776.25;;;-141.59;100.00
11085;BME280;5596;46.826;8.650;2022-12-18T12:48:36;61776.25;;;-141.59;100.00
11085;BME280;5596;46.826;8.650;2022-12-18T12:51:10;61776.25;;;-141.59;100.00
11085;BME280;5596;46.826;8.650;2022-12-18T12:53:39;61776.25;;;-141.59;100.00
11085;BME280;5596;46.826;8.650;2022-12-18T12:56:10;61776.25;;;-141.59;100.00
11085;BME280;5596;46.826;8.650;2022-12-18T12:58:44;61776.25;;;-141.59;100.00
11085;BME280;5596;46.826;8.650;2022-12-18T13:01:20;61776.25;;;-141.59;100.00
11085;BME280;5596;46.826;8.650;2022-12-18T13:03:58;61776.25;;;-141.59;100.00
11085;BME280;5596;46.826;8.650;2022-12-18T13:06:35;61776.25;;;-141.59;100.00
11085;BME280;5596;46.826;8.650;2022-12-18T13:09:06;61776.25;;;-141.59;100.00
11085;BME280;5596;46.826;8.650;2022-12-18T13:11:39;61776.25;;;-141.59;100.00